Archival Weather

Chicago O'Hare International

Chicago, Illinois (KORD)

Report from: Friday, December 23, 2022 7:21 AM CST
Current time: Friday, June 21, 2024 2:08 AM CDT

Current weather – Weather history – Daily summaries
Weather forecast

Present weatherBlowing snow
Temperature-22.2°C (-8.0°F)
Wind chill-36.6°C (-33.9°F)
Dew point-26.7°C (-16.1°F)
Winds 20 kts (10.3 m/s, 23 mph) West (260°)
Wind gusts 31 kts (15.9 m/s, 35.7 mph)
Peak wind 31 kts (15.9 m/s, 35.7 mph) West (280°) at 13:15
Visibility2.5 mi. (4 km)
Clouds Ceiling: Overcast 1,900 ft. (579 m)
Altimeter29.82 in.Hg (1010 mB)
Relative humidity67 %
Density altitude-4,653 ft. (-1,418 m)
Remarks System requires maintenance
Automated weather observing station with precipitation discriminator
Flight conditions Instrument Meteorological Conditions
Raw dataKORD 231321Z 26020G31KT 2 1/2SM BLSN OVC019 M22/M27 A2982 RMK AO2 PK WND 28031/1315 T12221267 $
An error has occurred. This application may no longer respond until reloaded. Reload 🗙